createdAt,value
2022-09-17T00:01:38.457Z,8.80
2022-09-17T00:04:40.149Z,8.80
2022-09-17T00:07:41.797Z,8.70
2022-09-17T00:10:44.632Z,8.70
2022-09-17T00:13:46.817Z,8.60
2022-09-17T00:16:49.309Z,8.60
2022-09-17T00:19:50.881Z,8.50
2022-09-17T00:22:53.889Z,8.50
2022-09-17T00:25:55.496Z,8.50
2022-09-17T00:28:58.436Z,8.40
2022-09-17T00:32:00.164Z,8.40
2022-09-17T00:35:01.726Z,8.40
2022-09-17T00:38:03.549Z,8.40
2022-09-17T00:41:06.525Z,8.40
2022-09-17T00:44:38.750Z,8.40
2022-09-17T00:47:46.612Z,8.50
2022-09-17T00:50:48.373Z,8.50
2022-09-17T00:53:49.945Z,8.50
2022-09-17T00:56:52.224Z,8.50
2022-09-17T00:59:54.289Z,8.50
2022-09-17T01:02:55.866Z,8.50
2022-09-17T01:06:08.913Z,8.40
2022-09-17T01:09:10.457Z,8.50
2022-09-17T01:12:27.466Z,8.40
2022-09-17T01:15:51.324Z,8.40
2022-09-17T01:19:31.911Z,8.40
2022-09-17T01:23:04.630Z,8.40
2022-09-17T01:26:50.002Z,8.40
2022-09-17T01:30:14.975Z,8.40
2022-09-17T01:33:47.551Z,8.40
2022-09-17T01:37:02.955Z,8.40
2022-09-17T01:40:11.170Z,8.40
2022-09-17T01:43:24.305Z,8.40
2022-09-17T01:46:40.542Z,8.40
2022-09-17T01:49:43.184Z,8.30
2022-09-17T01:52:47.375Z,8.40
2022-09-17T01:55:53.002Z,8.40
2022-09-17T01:59:09.372Z,8.50
2022-09-17T02:02:29.312Z,8.60
2022-09-17T02:05:37.839Z,8.70
2022-09-17T02:09:05.782Z,8.70
2022-09-17T02:12:13.039Z,8.80
2022-09-17T02:15:31.049Z,8.80
2022-09-17T02:18:49.420Z,8.90
2022-09-17T02:22:03.235Z,8.90
2022-09-17T02:25:23.367Z,8.90
2022-09-17T02:28:40.203Z,8.90
2022-09-17T02:31:42.400Z,8.90
2022-09-17T02:34:44.027Z,9.00
2022-09-17T02:37:45.940Z,9.00
2022-09-17T02:40:59.300Z,9.00
2022-09-17T02:44:16.669Z,9.00
2022-09-17T02:47:46.113Z,9.10
2022-09-17T02:51:05.424Z,9.10
2022-09-17T02:54:26.675Z,9.10
2022-09-17T02:57:37.774Z,9.10
2022-09-17T03:00:40.779Z,9.20
2022-09-17T03:03:45.862Z,9.20
2022-09-17T03:06:47.587Z,9.20
2022-09-17T03:09:49.311Z,9.20
2022-09-17T03:12:55.516Z,9.30
2022-09-17T03:15:57.465Z,9.30
2022-09-17T03:18:59.057Z,9.30
2022-09-17T03:22:00.602Z,9.40
2022-09-17T03:25:02.344Z,9.40
2022-09-17T03:28:03.904Z,9.40
2022-09-17T03:31:05.835Z,9.40
2022-09-17T03:34:07.513Z,9.50
2022-09-17T03:37:09.310Z,9.50
2022-09-17T03:40:11.037Z,9.50
2022-09-17T03:43:12.631Z,9.50
2022-09-17T03:46:14.304Z,9.50
2022-09-17T03:49:16.142Z,9.50
2022-09-17T03:52:18.032Z,9.50
2022-09-17T03:55:19.618Z,9.50
2022-09-17T03:58:21.164Z,9.60
2022-09-17T04:01:22.728Z,9.60
2022-09-17T04:04:24.373Z,9.60
2022-09-17T04:07:25.919Z,9.60
2022-09-17T04:10:27.495Z,9.70
2022-09-17T04:13:29.108Z,9.70
2022-09-17T04:16:30.672Z,9.70
2022-09-17T04:19:32.675Z,9.70
2022-09-17T04:22:34.407Z,9.80
2022-09-17T04:25:35.945Z,9.80
2022-09-17T04:28:37.694Z,9.90
2022-09-17T04:31:39.284Z,9.90
2022-09-17T04:34:41.080Z,9.90
2022-09-17T04:37:42.649Z,9.90
2022-09-17T04:40:46.355Z,9.90
2022-09-17T04:43:47.985Z,9.90
2022-09-17T04:46:49.627Z,9.90
2022-09-17T04:49:51.355Z,9.80
2022-09-17T04:52:52.917Z,9.80
2022-09-17T04:55:54.558Z,9.80
2022-09-17T04:58:56.150Z,9.80
2022-09-17T05:01:57.992Z,9.80
2022-09-17T05:04:59.771Z,9.70
2022-09-17T05:08:01.597Z,9.70
2022-09-17T05:11:03.795Z,9.60
2022-09-17T05:14:05.396Z,9.60
2022-09-17T05:17:06.927Z,9.70
2022-09-17T05:20:09.804Z,9.70
2022-09-17T05:23:11.372Z,9.70
2022-09-17T05:26:12.914Z,9.70
2022-09-17T05:29:14.468Z,9.70
2022-09-17T05:32:16.017Z,9.70
2022-09-17T05:35:17.617Z,9.70
2022-09-17T05:38:19.308Z,9.80
2022-09-17T05:41:21.026Z,9.80
2022-09-17T05:44:23.641Z,9.80
2022-09-17T05:47:25.249Z,9.90
2022-09-17T05:50:27.809Z,9.90
2022-09-17T05:53:29.460Z,10.00
2022-09-17T05:56:31.025Z,10.10
2022-09-17T05:59:32.925Z,10.10
2022-09-17T06:02:34.538Z,10.10
2022-09-17T06:05:36.104Z,10.20
2022-09-17T06:08:37.697Z,10.20
2022-09-17T06:11:39.473Z,10.20
2022-09-17T06:14:41.063Z,10.30
2022-09-17T06:17:43.390Z,10.30
2022-09-17T06:20:56.189Z,10.30
2022-09-17T06:23:57.760Z,10.40
2022-09-17T06:26:59.328Z,10.40
2022-09-17T06:30:01.483Z,10.40
2022-09-17T06:33:03.126Z,10.50
2022-09-17T06:36:14.070Z,10.40
2022-09-17T08:15:02.631Z,13.20
2022-09-17T08:18:04.223Z,13.50
2022-09-17T08:21:07.710Z,13.60
2022-09-17T08:24:09.660Z,13.40
2022-09-17T08:27:11.227Z,13.40
2022-09-17T08:30:12.813Z,13.30
2022-09-17T08:33:14.417Z,13.40
2022-09-17T08:36:18.571Z,13.70
2022-09-17T08:39:20.541Z,13.80
2022-09-17T08:42:54.859Z,13.70
2022-09-17T08:45:58.276Z,13.80
2022-09-17T08:49:15.320Z,13.80
2022-09-17T08:52:41.729Z,13.70
2022-09-17T08:56:11.615Z,13.90
2022-09-17T08:59:29.284Z,14.00
2022-09-17T09:02:51.837Z,14.30
2022-09-17T09:05:56.276Z,14.50
2022-09-17T09:09:06.096Z,14.40
2022-09-17T09:12:22.519Z,14.40
2022-09-17T09:15:42.387Z,14.60
2022-09-17T09:18:44.555Z,14.70
2022-09-17T09:21:59.436Z,15.10
2022-09-17T09:25:09.956Z,15.10
2022-09-17T09:28:58.287Z,15.10
2022-09-17T09:32:34.895Z,15.00
2022-09-17T09:35:41.439Z,15.20
2022-09-17T09:38:57.699Z,15.40
2022-09-17T09:42:14.576Z,15.70
2022-09-17T09:45:26.125Z,15.90
2022-09-17T09:48:36.760Z,15.90
2022-09-17T09:51:54.791Z,15.90
2022-09-17T09:55:14.942Z,15.90
2022-09-17T09:58:39.245Z,15.90
2022-09-17T10:01:44.050Z,15.80
2022-09-17T10:04:48.310Z,15.60
2022-09-17T10:07:53.362Z,15.20
2022-09-17T10:11:01.339Z,14.40
2022-09-17T10:14:23.356Z,13.00
2022-09-17T10:17:26.583Z,12.20
2022-09-17T10:20:28.212Z,11.80
2022-09-17T10:23:33.752Z,11.40
2022-09-17T10:26:36.919Z,11.50
2022-09-17T10:29:47.023Z,11.60
2022-09-17T10:33:17.376Z,11.80
2022-09-17T10:36:41.260Z,12.10
2022-09-17T10:39:46.526Z,12.50
2022-09-17T10:43:11.780Z,12.70
2022-09-17T10:46:25.226Z,13.00
2022-09-17T10:49:37.536Z,13.10
2022-09-17T10:52:44.018Z,13.20
2022-09-17T10:55:56.841Z,13.10
2022-09-17T10:59:25.606Z,13.20
2022-09-17T11:02:45.665Z,13.30
2022-09-17T11:06:08.656Z,13.30
2022-09-17T11:09:37.218Z,13.40
2022-09-17T11:12:57.065Z,13.60
2022-09-17T11:16:40.756Z,13.70
2022-09-17T11:19:55.441Z,14.00
2022-09-17T11:23:09.912Z,14.30
2022-09-17T11:26:31.260Z,14.60
2022-09-17T11:30:04.937Z,14.90
2022-09-17T11:33:28.396Z,15.10
2022-09-17T11:36:48.123Z,15.20
2022-09-17T11:40:10.437Z,15.30
2022-09-17T11:43:27.559Z,15.50
2022-09-17T11:46:46.252Z,15.60
2022-09-17T11:50:03.598Z,15.50
2022-09-17T11:53:15.335Z,15.30
2022-09-17T11:56:29.518Z,15.30
2022-09-17T11:59:37.261Z,15.20
2022-09-17T12:03:06.735Z,15.10
2022-09-17T12:06:15.017Z,15.00
2022-09-17T12:09:21.226Z,15.00
2022-09-17T12:12:48.259Z,15.10
2022-09-17T12:15:53.581Z,15.40
2022-09-17T12:19:07.712Z,15.60
2022-09-17T12:22:26.195Z,15.80
2022-09-17T12:25:36.980Z,15.90
2022-09-17T12:28:43.817Z,16.20
2022-09-17T12:31:55.490Z,16.20
2022-09-17T12:35:12.125Z,16.40
2022-09-17T12:38:37.887Z,16.50
2022-09-17T12:42:01.283Z,16.80
2022-09-17T12:45:23.045Z,16.70
2022-09-17T12:48:33.803Z,16.80
2022-09-17T12:51:35.346Z,17.10
2022-09-17T12:54:57.555Z,17.00
2022-09-17T12:58:14.042Z,17.00
2022-09-17T13:01:38.553Z,16.80
2022-09-17T13:05:07.301Z,16.60
2022-09-17T13:08:27.767Z,16.50
2022-09-17T13:11:46.636Z,16.50
2022-09-17T13:15:09.875Z,16.50
2022-09-17T13:18:27.427Z,16.30
2022-09-17T13:21:40.231Z,15.90
2022-09-17T13:24:46.997Z,15.90
2022-09-17T13:27:51.910Z,15.90
2022-09-17T13:31:01.635Z,15.90
2022-09-17T13:34:04.027Z,16.00
2022-09-17T13:37:18.906Z,16.30
2022-09-17T13:40:24.377Z,16.40
2022-09-17T13:43:27.851Z,16.10
2022-09-17T13:46:32.513Z,15.70
2022-09-17T13:49:34.257Z,14.60
2022-09-17T13:52:47.007Z,13.60
2022-09-17T13:55:52.408Z,13.10
2022-09-17T13:58:54.064Z,13.00
2022-09-17T14:02:27.445Z,13.00
2022-09-17T14:05:35.616Z,13.20
2022-09-17T14:08:56.843Z,13.70
2022-09-17T14:11:58.491Z,14.00
2022-09-17T14:15:00.123Z,14.30
2022-09-17T14:18:22.247Z,14.60
2022-09-17T14:21:32.813Z,14.90
2022-09-17T14:24:49.077Z,15.20
2022-09-17T14:27:59.799Z,15.50
2022-09-17T14:31:08.354Z,15.80
2022-09-17T14:34:21.033Z,15.90
2022-09-17T14:37:24.006Z,15.80
2022-09-17T14:40:27.034Z,15.40
2022-09-17T14:43:42.885Z,15.10
2022-09-17T14:47:04.112Z,15.20
2022-09-17T14:50:24.456Z,15.30
2022-09-17T14:53:26.027Z,15.40
2022-09-17T14:56:27.583Z,15.60
2022-09-17T14:59:37.844Z,15.70
2022-09-17T15:02:43.146Z,15.80
2022-09-17T15:05:50.286Z,15.70
2022-09-17T15:08:57.592Z,15.50
2022-09-17T15:12:00.782Z,15.30
2022-09-17T15:15:02.493Z,15.20
2022-09-17T15:18:04.961Z,15.10
2022-09-17T15:21:22.123Z,15.10
2022-09-17T15:24:40.652Z,15.10
2022-09-17T15:27:45.412Z,14.90
2022-09-17T15:30:50.947Z,14.80
2022-09-17T15:33:52.500Z,14.60
2022-09-17T15:37:25.631Z,14.50
2022-09-17T15:40:31.858Z,14.40
2022-09-17T15:43:34.355Z,14.30
2022-09-17T15:46:36.045Z,14.10
2022-09-17T15:49:38.476Z,13.80
2022-09-17T15:52:40.088Z,13.60
2022-09-17T15:55:58.448Z,13.50
2022-09-17T15:59:06.424Z,13.40
2022-09-17T16:02:29.153Z,13.40
2022-09-17T16:05:46.340Z,13.50
2022-09-17T16:08:56.170Z,13.40
2022-09-17T16:11:57.726Z,13.30
2022-09-17T16:15:01.429Z,13.30
2022-09-17T16:18:03.119Z,13.20
2022-09-17T16:21:04.876Z,13.30
2022-09-17T16:24:06.441Z,13.30
2022-09-17T16:27:19.765Z,13.20
2022-09-17T16:30:22.811Z,13.20
2022-09-17T16:33:26.110Z,13.40
2022-09-17T16:36:30.910Z,13.90
2022-09-17T16:39:32.820Z,14.10
2022-09-17T16:42:34.384Z,14.60
2022-09-17T16:45:36.145Z,14.60
2022-09-17T16:48:38.228Z,14.80
2022-09-17T16:51:39.760Z,15.20
2022-09-17T16:54:41.295Z,15.10
2022-09-17T16:57:43.681Z,14.70
2022-09-17T17:00:45.804Z,14.10
2022-09-17T17:03:51.448Z,13.50
2022-09-17T17:06:52.997Z,13.20
2022-09-17T17:09:54.663Z,13.10
2022-09-17T17:12:57.263Z,13.10
2022-09-17T17:15:59.006Z,12.90
2022-09-17T17:19:00.760Z,12.80
2022-09-17T17:22:02.393Z,12.70
2022-09-17T17:25:05.920Z,12.60
2022-09-17T17:28:07.576Z,12.50
2022-09-17T17:31:10.025Z,12.40
2022-09-17T17:34:12.383Z,12.40
2022-09-17T17:37:14.251Z,12.20
2022-09-17T17:40:16.376Z,12.20
2022-09-17T17:43:18.117Z,12.10
2022-09-17T17:46:19.729Z,12.00
2022-09-17T17:49:21.303Z,12.00
2022-09-17T17:52:22.983Z,12.00
2022-09-17T17:55:26.379Z,12.00
2022-09-17T17:58:29.223Z,11.90
2022-09-17T18:01:31.651Z,11.90
2022-09-17T18:04:33.286Z,11.70
2022-09-17T18:07:35.024Z,11.60
2022-09-17T18:10:36.637Z,11.40
2022-09-17T18:13:39.236Z,11.30
2022-09-17T18:16:41.034Z,11.10
2022-09-17T18:19:42.571Z,11.10
2022-09-17T18:22:44.206Z,11.00
2022-09-17T18:26:06.894Z,11.00
2022-09-17T18:29:09.276Z,11.00
2022-09-17T18:32:10.835Z,11.00
2022-09-17T18:35:12.892Z,11.00
2022-09-17T18:38:15.831Z,10.90
2022-09-17T18:41:17.420Z,10.90
2022-09-17T18:44:21.452Z,10.90
2022-09-17T18:47:23.177Z,10.90
2022-09-17T18:50:24.775Z,10.80
2022-09-17T18:53:30.797Z,10.80
2022-09-17T18:56:33.032Z,10.80
2022-09-17T18:59:34.597Z,10.70
2022-09-17T19:02:36.122Z,10.60
2022-09-17T19:05:37.856Z,10.50
2022-09-17T19:08:39.417Z,10.50
2022-09-17T19:11:40.982Z,10.40
2022-09-17T19:14:42.523Z,10.40
2022-09-17T19:17:44.067Z,10.30
2022-09-17T19:20:45.605Z,10.20
2022-09-17T19:23:49.851Z,10.20
2022-09-17T19:26:51.621Z,10.20
2022-09-17T19:29:53.236Z,10.10
2022-09-17T19:32:54.801Z,10.10
2022-09-17T19:36:07.087Z,10.00
2022-09-17T19:39:08.667Z,9.90
2022-09-17T19:42:10.692Z,9.90
2022-09-17T19:45:12.315Z,9.90
2022-09-17T19:48:13.884Z,9.90
2022-09-17T19:51:16.821Z,9.90
2022-09-17T19:54:18.431Z,9.80
2022-09-17T19:57:20.467Z,9.80
2022-09-17T20:00:22.203Z,9.70
2022-09-17T20:03:24.400Z,9.60
2022-09-17T20:06:28.812Z,9.60
2022-09-17T20:09:30.716Z,9.50
2022-09-17T20:12:32.357Z,9.50
2022-09-17T20:15:35.751Z,9.50
2022-09-17T20:18:37.722Z,9.40
2022-09-17T20:21:39.265Z,9.40
2022-09-17T20:24:40.865Z,9.40
2022-09-17T20:27:42.440Z,9.40
2022-09-17T20:30:44.167Z,9.30
2022-09-17T20:33:47.676Z,9.40
2022-09-17T20:36:49.253Z,9.30
2022-09-17T20:39:51.036Z,9.30
2022-09-17T20:42:52.630Z,9.30
2022-09-17T20:45:55.652Z,9.40
2022-09-17T20:48:58.148Z,9.40
2022-09-17T20:52:00.305Z,9.50
2022-09-17T20:55:01.842Z,9.50
2022-09-17T20:58:03.400Z,9.50
2022-09-17T21:01:14.820Z,9.60
2022-09-17T21:04:19.708Z,9.60
2022-09-17T21:07:21.450Z,9.60
2022-09-17T21:10:23.001Z,9.60
2022-09-17T21:13:24.803Z,9.70
2022-09-17T21:16:26.541Z,9.80
2022-09-17T21:19:29.269Z,9.80
2022-09-17T21:22:30.824Z,9.90
2022-09-17T21:25:32.386Z,10.00
2022-09-17T21:28:35.411Z,10.10
2022-09-17T21:31:38.086Z,10.10
2022-09-17T21:34:39.879Z,10.10
2022-09-17T21:37:41.505Z,10.20
2022-09-17T21:40:44.144Z,10.20
2022-09-17T21:43:46.589Z,10.20
2022-09-17T21:46:49.583Z,10.30
2022-09-17T21:49:51.714Z,10.30
2022-09-17T21:52:53.319Z,10.30
2022-09-17T21:55:54.851Z,10.30
2022-09-17T21:59:01.935Z,10.40
2022-09-17T22:02:04.586Z,10.40
2022-09-17T22:05:06.423Z,10.40
2022-09-17T22:08:07.945Z,10.40
2022-09-17T22:11:12.812Z,10.50
2022-09-17T22:14:19.232Z,10.50
2022-09-17T22:17:21.556Z,10.50
2022-09-17T22:20:25.456Z,10.50
2022-09-17T22:23:27.603Z,10.60
2022-09-17T22:26:31.771Z,10.50
2022-09-17T22:29:33.404Z,10.60
2022-09-17T22:32:34.999Z,10.60
2022-09-17T22:35:36.575Z,10.60
2022-09-17T22:38:38.615Z,10.60
2022-09-17T22:41:45.665Z,10.60
2022-09-17T22:44:47.480Z,10.60
2022-09-17T22:47:49.045Z,10.60
2022-09-17T22:50:52.035Z,10.60
2022-09-17T22:53:54.225Z,10.60
2022-09-17T22:56:55.795Z,10.60
2022-09-17T22:59:57.380Z,10.60
2022-09-17T23:02:59.062Z,10.60
2022-09-17T23:06:05.870Z,10.60
2022-09-17T23:09:07.932Z,10.50
2022-09-17T23:12:09.606Z,10.50
2022-09-17T23:15:11.232Z,10.50
2022-09-17T23:18:13.004Z,10.50
2022-09-17T23:21:17.732Z,10.50
2022-09-17T23:24:21.418Z,10.50
2022-09-17T23:27:23.037Z,10.50
2022-09-17T23:30:26.683Z,10.50
2022-09-17T23:33:28.247Z,10.50
2022-09-17T23:36:32.078Z,10.50
2022-09-17T23:39:33.650Z,10.50
2022-09-17T23:42:36.457Z,10.50
2022-09-17T23:45:38.003Z,10.50
2022-09-17T23:48:39.919Z,10.50
2022-09-17T23:51:41.722Z,10.50
2022-09-17T23:54:43.257Z,10.50
2022-09-17T23:57:44.861Z,10.50
